sensor_id;sensor_type;location;lat;lon;timestamp;temperature;humidity
9941;DHT22;5009;50.656;7.188;2022-10-16T00:01:11;14.80;99.90
9941;DHT22;5009;50.656;7.188;2022-10-16T00:03:42;14.80;99.90
9941;DHT22;5009;50.656;7.188;2022-10-16T00:06:09;14.80;99.90
9941;DHT22;5009;50.656;7.188;2022-10-16T00:08:36;14.80;99.90
9941;DHT22;5009;50.656;7.188;2022-10-16T00:13:39;14.80;99.90
9941;DHT22;5009;50.656;7.188;2022-10-16T00:16:06;14.80;99.90
9941;DHT22;5009;50.656;7.188;2022-10-16T00:18:31;14.80;99.90
9941;DHT22;5009;50.656;7.188;2022-10-16T00:21:15;14.80;99.90
9941;DHT22;5009;50.656;7.188;2022-10-16T00:23:41;14.80;99.90
9941;DHT22;5009;50.656;7.188;2022-10-16T00:26:10;14.70;99.90
9941;DHT22;5009;50.656;7.188;2022-10-16T00:28:36;14.70;99.90
9941;DHT22;5009;50.656;7.188;2022-10-16T00:31:10;14.70;99.90
9941;DHT22;5009;50.656;7.188;2022-10-16T00:33:37;14.70;99.90
9941;DHT22;5009;50.656;7.188;2022-10-16T00:36:05;14.70;99.90
9941;DHT22;5009;50.656;7.188;2022-10-16T00:38:31;14.70;99.90
9941;DHT22;5009;50.656;7.188;2022-10-16T00:40:57;14.70;99.90
9941;DHT22;5009;50.656;7.188;2022-10-16T00:43:58;14.60;99.90
9941;DHT22;5009;50.656;7.188;2022-10-16T00:46:40;14.60;99.90
9941;DHT22;5009;50.656;7.188;2022-10-16T00:49:10;14.60;99.90
9941;DHT22;5009;50.656;7.188;2022-10-16T00:51:41;14.60;99.90
9941;DHT22;5009;50.656;7.188;2022-10-16T00:54:15;14.50;99.90
9941;DHT22;5009;50.656;7.188;2022-10-16T00:56:43;14.40;99.90
9941;DHT22;5009;50.656;7.188;2022-10-16T00:59:20;14.30;99.90
9941;DHT22;5009;50.656;7.188;2022-10-16T01:01:48;14.40;99.90
9941;DHT22;5009;50.656;7.188;2022-10-16T01:04:14;14.40;99.90
9941;DHT22;5009;50.656;7.188;2022-10-16T01:09:36;14.40;99.90
9941;DHT22;5009;50.656;7.188;2022-10-16T01:12:15;14.40;99.90
9941;DHT22;5009;50.656;7.188;2022-10-16T01:14:53;14.30;99.90
9941;DHT22;5009;50.656;7.188;2022-10-16T01:20:00;14.20;99.90
9941;DHT22;5009;50.656;7.188;2022-10-16T01:23:21;14.20;99.90
9941;DHT22;5009;50.656;7.188;2022-10-16T01:25:28;14.30;99.90
9941;DHT22;5009;50.656;7.188;2022-10-16T01:27:57;14.30;99.90
9941;DHT22;5009;50.656;7.188;2022-10-16T01:30:30;14.30;99.90
9941;DHT22;5009;50.656;7.188;2022-10-16T01:33:10;14.30;99.90
9941;DHT22;5009;50.656;7.188;2022-10-16T01:35:45;14.30;99.90
9941;DHT22;5009;50.656;7.188;2022-10-16T01:38:16;14.30;99.90
9941;DHT22;5009;50.656;7.188;2022-10-16T01:40:47;14.30;99.90
9941;DHT22;5009;50.656;7.188;2022-10-16T01:43:21;14.20;99.90
9941;DHT22;5009;50.656;7.188;2022-10-16T01:45:47;14.10;99.90
9941;DHT22;5009;50.656;7.188;2022-10-16T01:48:16;14.10;99.90
9941;DHT22;5009;50.656;7.188;2022-10-16T01:50:44;14.00;99.90
9941;DHT22;5009;50.656;7.188;2022-10-16T01:53:15;14.00;99.90
9941;DHT22;5009;50.656;7.188;2022-10-16T01:55:46;14.10;99.90
9941;DHT22;5009;50.656;7.188;2022-10-16T01:58:13;14.00;99.90
9941;DHT22;5009;50.656;7.188;2022-10-16T02:00:42;14.00;99.90
9941;DHT22;5009;50.656;7.188;2022-10-16T02:03:09;14.00;99.90
9941;DHT22;5009;50.656;7.188;2022-10-16T02:05:46;14.00;99.90
9941;DHT22;5009;50.656;7.188;2022-10-16T02:08:12;13.90;99.90
9941;DHT22;5009;50.656;7.188;2022-10-16T02:10:39;13.90;99.90
9941;DHT22;5009;50.656;7.188;2022-10-16T02:15:54;13.90;99.90
9941;DHT22;5009;50.656;7.188;2022-10-16T02:18:20;13.90;99.90
9941;DHT22;5009;50.656;7.188;2022-10-16T02:20:57;13.90;99.90
9941;DHT22;5009;50.656;7.188;2022-10-16T02:23:43;13.80;99.90
9941;DHT22;5009;50.656;7.188;2022-10-16T02:26:15;13.90;99.90
9941;DHT22;5009;50.656;7.188;2022-10-16T02:28:45;13.90;99.90
9941;DHT22;5009;50.656;7.188;2022-10-16T02:31:18;14.00;99.90
9941;DHT22;5009;50.656;7.188;2022-10-16T02:33:45;14.00;99.90
9941;DHT22;5009;50.656;7.188;2022-10-16T02:36:11;14.00;99.90
9941;DHT22;5009;50.656;7.188;2022-10-16T02:38:39;13.90;99.90
9941;DHT22;5009;50.656;7.188;2022-10-16T02:41:05;13.90;99.90
9941;DHT22;5009;50.656;7.188;2022-10-16T02:43:31;13.90;99.90
9941;DHT22;5009;50.656;7.188;2022-10-16T02:45:58;14.00;99.90
9941;DHT22;5009;50.656;7.188;2022-10-16T02:48:24;14.00;99.90
9941;DHT22;5009;50.656;7.188;2022-10-16T02:50:50;14.00;99.90
9941;DHT22;5009;50.656;7.188;2022-10-16T02:53:16;14.10;99.90
9941;DHT22;5009;50.656;7.188;2022-10-16T02:55:41;14.10;99.90
9941;DHT22;5009;50.656;7.188;2022-10-16T02:58:07;14.10;99.90
9941;DHT22;5009;50.656;7.188;2022-10-16T03:00:33;14.10;99.90
9941;DHT22;5009;50.656;7.188;2022-10-16T03:02:58;14.20;99.90
9941;DHT22;5009;50.656;7.188;2022-10-16T03:05:24;14.20;99.90
9941;DHT22;5009;50.656;7.188;2022-10-16T03:07:49;14.10;99.90
9941;DHT22;5009;50.656;7.188;2022-10-16T03:10:15;14.20;99.90
9941;DHT22;5009;50.656;7.188;2022-10-16T03:12:40;14.20;99.90
9941;DHT22;5009;50.656;7.188;2022-10-16T03:15:06;14.20;99.90
9941;DHT22;5009;50.656;7.188;2022-10-16T03:17:32;14.20;99.90
9941;DHT22;5009;50.656;7.188;2022-10-16T03:19:58;14.10;99.90
9941;DHT22;5009;50.656;7.188;2022-10-16T03:22:24;14.10;99.90
9941;DHT22;5009;50.656;7.188;2022-10-16T03:24:49;14.10;99.90
9941;DHT22;5009;50.656;7.188;2022-10-16T03:27:15;14.10;99.90
9941;DHT22;5009;50.656;7.188;2022-10-16T03:29:40;14.20;99.90
9941;DHT22;5009;50.656;7.188;2022-10-16T03:32:06;14.30;99.90
9941;DHT22;5009;50.656;7.188;2022-10-16T03:34:31;14.30;99.90
9941;DHT22;5009;50.656;7.188;2022-10-16T03:36:57;14.30;99.90
9941;DHT22;5009;50.656;7.188;2022-10-16T03:39:22;14.30;99.90
9941;DHT22;5009;50.656;7.188;2022-10-16T03:41:48;14.30;99.90
9941;DHT22;5009;50.656;7.188;2022-10-16T03:44:14;14.20;99.90
9941;DHT22;5009;50.656;7.188;2022-10-16T03:46:39;14.20;99.90
9941;DHT22;5009;50.656;7.188;2022-10-16T03:49:05;14.20;99.90
9941;DHT22;5009;50.656;7.188;2022-10-16T03:51:30;14.20;99.90
9941;DHT22;5009;50.656;7.188;2022-10-16T03:53:56;14.10;99.90
9941;DHT22;5009;50.656;7.188;2022-10-16T03:56:21;14.10;99.90
9941;DHT22;5009;50.656;7.188;2022-10-16T03:58:47;14.10;99.90
9941;DHT22;5009;50.656;7.188;2022-10-16T04:01:13;14.10;99.90
9941;DHT22;5009;50.656;7.188;2022-10-16T04:03:38;14.20;99.90
9941;DHT22;5009;50.656;7.188;2022-10-16T04:06:04;14.20;99.90
9941;DHT22;5009;50.656;7.188;2022-10-16T04:08:29;14.20;99.90
9941;DHT22;5009;50.656;7.188;2022-10-16T04:10:55;14.20;99.90
9941;DHT22;5009;50.656;7.188;2022-10-16T04:13:20;14.20;99.90
9941;DHT22;5009;50.656;7.188;2022-10-16T04:15:46;14.20;99.90
9941;DHT22;5009;50.656;7.188;2022-10-16T04:18:12;14.30;99.90
9941;DHT22;5009;50.656;7.188;2022-10-16T04:20:37;14.30;99.90
9941;DHT22;5009;50.656;7.188;2022-10-16T04:23:03;14.30;99.90
9941;DHT22;5009;50.656;7.188;2022-10-16T04:25:30;14.30;99.90
9941;DHT22;5009;50.656;7.188;2022-10-16T04:27:55;14.40;99.90
9941;DHT22;5009;50.656;7.188;2022-10-16T04:30:22;14.40;99.90
9941;DHT22;5009;50.656;7.188;2022-10-16T04:32:51;14.40;99.90
9941;DHT22;5009;50.656;7.188;2022-10-16T04:35:18;14.50;99.90
9941;DHT22;5009;50.656;7.188;2022-10-16T04:37:44;14.50;99.90
9941;DHT22;5009;50.656;7.188;2022-10-16T04:40:10;14.60;99.90
9941;DHT22;5009;50.656;7.188;2022-10-16T04:42:35;14.60;99.90
9941;DHT22;5009;50.656;7.188;2022-10-16T04:45:01;14.60;99.90
9941;DHT22;5009;50.656;7.188;2022-10-16T04:47:26;14.60;99.90
9941;DHT22;5009;50.656;7.188;2022-10-16T04:49:52;14.60;99.90
9941;DHT22;5009;50.656;7.188;2022-10-16T04:52:17;14.60;99.90
9941;DHT22;5009;50.656;7.188;2022-10-16T04:54:44;14.60;99.90
9941;DHT22;5009;50.656;7.188;2022-10-16T04:57:10;14.60;99.90
9941;DHT22;5009;50.656;7.188;2022-10-16T04:59:36;14.60;99.90
9941;DHT22;5009;50.656;7.188;2022-10-16T05:02:02;14.60;99.90
9941;DHT22;5009;50.656;7.188;2022-10-16T05:04:27;14.70;99.90
9941;DHT22;5009;50.656;7.188;2022-10-16T05:06:53;14.70;99.90
9941;DHT22;5009;50.656;7.188;2022-10-16T05:09:19;14.70;99.90
9941;DHT22;5009;50.656;7.188;2022-10-16T05:11:44;14.70;99.90
9941;DHT22;5009;50.656;7.188;2022-10-16T05:14:10;14.80;99.90
9941;DHT22;5009;50.656;7.188;2022-10-16T05:16:35;14.80;99.90
9941;DHT22;5009;50.656;7.188;2022-10-16T05:19:01;14.80;99.90
9941;DHT22;5009;50.656;7.188;2022-10-16T05:21:26;14.80;99.90
9941;DHT22;5009;50.656;7.188;2022-10-16T05:23:53;14.80;99.90
9941;DHT22;5009;50.656;7.188;2022-10-16T05:26:19;14.80;99.90
9941;DHT22;5009;50.656;7.188;2022-10-16T05:28:45;14.80;99.90
9941;DHT22;5009;50.656;7.188;2022-10-16T05:31:10;14.90;99.90
9941;DHT22;5009;50.656;7.188;2022-10-16T05:33:36;14.90;99.90
9941;DHT22;5009;50.656;7.188;2022-10-16T05:36:06;14.90;99.90
9941;DHT22;5009;50.656;7.188;2022-10-16T05:38:36;14.90;99.90
9941;DHT22;5009;50.656;7.188;2022-10-16T05:41:02;14.90;99.90
9941;DHT22;5009;50.656;7.188;2022-10-16T05:43:29;14.80;99.90
9941;DHT22;5009;50.656;7.188;2022-10-16T05:45:56;14.80;99.90
9941;DHT22;5009;50.656;7.188;2022-10-16T05:48:22;14.90;99.90
9941;DHT22;5009;50.656;7.188;2022-10-16T05:50:48;14.80;99.90
9941;DHT22;5009;50.656;7.188;2022-10-16T05:53:13;14.80;99.90
9941;DHT22;5009;50.656;7.188;2022-10-16T05:55:39;14.80;99.90
9941;DHT22;5009;50.656;7.188;2022-10-16T05:58:05;14.80;99.90
9941;DHT22;5009;50.656;7.188;2022-10-16T06:00:30;14.80;99.90
9941;DHT22;5009;50.656;7.188;2022-10-16T06:02:56;14.80;99.90
9941;DHT22;5009;50.656;7.188;2022-10-16T06:05:21;14.80;99.90
9941;DHT22;5009;50.656;7.188;2022-10-16T06:07:47;14.80;99.90
9941;DHT22;5009;50.656;7.188;2022-10-16T06:10:12;14.90;99.90
9941;DHT22;5009;50.656;7.188;2022-10-16T06:12:38;14.90;99.90
9941;DHT22;5009;50.656;7.188;2022-10-16T06:15:04;14.90;99.90
9941;DHT22;5009;50.656;7.188;2022-10-16T06:17:29;14.90;99.90
9941;DHT22;5009;50.656;7.188;2022-10-16T06:19:55;14.90;99.90
9941;DHT22;5009;50.656;7.188;2022-10-16T06:22:20;14.90;99.90
9941;DHT22;5009;50.656;7.188;2022-10-16T06:24:46;14.90;99.90
9941;DHT22;5009;50.656;7.188;2022-10-16T06:27:12;15.00;99.90
9941;DHT22;5009;50.656;7.188;2022-10-16T06:29:38;15.00;99.90
9941;DHT22;5009;50.656;7.188;2022-10-16T06:32:04;15.10;99.90
9941;DHT22;5009;50.656;7.188;2022-10-16T06:34:29;15.10;99.90
9941;DHT22;5009;50.656;7.188;2022-10-16T06:36:55;15.10;99.90
9941;DHT22;5009;50.656;7.188;2022-10-16T06:39:21;15.10;99.90
9941;DHT22;5009;50.656;7.188;2022-10-16T06:41:46;15.20;99.90
9941;DHT22;5009;50.656;7.188;2022-10-16T06:44:12;15.20;99.90
9941;DHT22;5009;50.656;7.188;2022-10-16T06:46:37;15.20;99.90
9941;DHT22;5009;50.656;7.188;2022-10-16T06:49:03;15.20;99.90
9941;DHT22;5009;50.656;7.188;2022-10-16T06:51:28;15.20;99.90
9941;DHT22;5009;50.656;7.188;2022-10-16T06:53:55;15.20;99.90
9941;DHT22;5009;50.656;7.188;2022-10-16T06:56:27;15.20;99.90
9941;DHT22;5009;50.656;7.188;2022-10-16T06:58:53;15.30;99.90
9941;DHT22;5009;50.656;7.188;2022-10-16T07:01:22;15.30;99.90
9941;DHT22;5009;50.656;7.188;2022-10-16T07:03:48;15.40;99.90
9941;DHT22;5009;50.656;7.188;2022-10-16T07:06:16;15.40;99.90
9941;DHT22;5009;50.656;7.188;2022-10-16T07:08:44;15.60;99.90
9941;DHT22;5009;50.656;7.188;2022-10-16T07:11:15;15.60;99.90
9941;DHT22;5009;50.656;7.188;2022-10-16T07:13:44;15.70;99.90
9941;DHT22;5009;50.656;7.188;2022-10-16T07:16:16;15.90;99.90
9941;DHT22;5009;50.656;7.188;2022-10-16T07:18:42;16.00;99.90
9941;DHT22;5009;50.656;7.188;2022-10-16T07:21:20;16.10;99.90
9941;DHT22;5009;50.656;7.188;2022-10-16T07:23:50;16.10;99.90
9941;DHT22;5009;50.656;7.188;2022-10-16T07:26:16;16.20;99.90
9941;DHT22;5009;50.656;7.188;2022-10-16T07:28:42;16.20;99.90
9941;DHT22;5009;50.656;7.188;2022-10-16T07:31:11;16.30;99.90
9941;DHT22;5009;50.656;7.188;2022-10-16T07:33:37;16.30;99.90
9941;DHT22;5009;50.656;7.188;2022-10-16T07:36:04;16.50;99.90
9941;DHT22;5009;50.656;7.188;2022-10-16T07:38:29;16.80;99.90
9941;DHT22;5009;50.656;7.188;2022-10-16T07:40:57;16.90;99.90
9941;DHT22;5009;50.656;7.188;2022-10-16T07:43:23;16.90;99.90
9941;DHT22;5009;50.656;7.188;2022-10-16T07:45:49;16.90;99.90
9941;DHT22;5009;50.656;7.188;2022-10-16T07:48:16;16.90;99.90
9941;DHT22;5009;50.656;7.188;2022-10-16T07:50:42;17.10;99.90
9941;DHT22;5009;50.656;7.188;2022-10-16T07:53:09;17.30;99.90
9941;DHT22;5009;50.656;7.188;2022-10-16T07:55:34;17.70;99.90
9941;DHT22;5009;50.656;7.188;2022-10-16T07:58:00;17.80;99.90
9941;DHT22;5009;50.656;7.188;2022-10-16T08:00:26;17.80;99.90
9941;DHT22;5009;50.656;7.188;2022-10-16T08:02:51;17.90;99.90
9941;DHT22;5009;50.656;7.188;2022-10-16T08:05:17;18.00;99.90
9941;DHT22;5009;50.656;7.188;2022-10-16T08:07:42;17.80;99.90
9941;DHT22;5009;50.656;7.188;2022-10-16T08:10:16;17.80;99.90
9941;DHT22;5009;50.656;7.188;2022-10-16T08:12:42;17.80;99.90
9941;DHT22;5009;50.656;7.188;2022-10-16T08:15:08;17.80;99.90
9941;DHT22;5009;50.656;7.188;2022-10-16T08:17:34;17.90;99.90
9941;DHT22;5009;50.656;7.188;2022-10-16T08:19:59;18.00;99.90
9941;DHT22;5009;50.656;7.188;2022-10-16T08:22:25;18.20;99.90
9941;DHT22;5009;50.656;7.188;2022-10-16T08:24:50;18.40;99.90
9941;DHT22;5009;50.656;7.188;2022-10-16T08:27:16;18.40;99.90
9941;DHT22;5009;50.656;7.188;2022-10-16T08:29:41;18.50;99.90
9941;DHT22;5009;50.656;7.188;2022-10-16T08:32:07;18.50;99.90
9941;DHT22;5009;50.656;7.188;2022-10-16T08:34:32;18.40;99.90
9941;DHT22;5009;50.656;7.188;2022-10-16T08:36:58;18.40;99.90
9941;DHT22;5009;50.656;7.188;2022-10-16T08:39:23;18.40;99.90
9941;DHT22;5009;50.656;7.188;2022-10-16T08:47:48;18.80;99.90
9941;DHT22;5009;50.656;7.188;2022-10-16T08:50:26;19.00;99.90
9941;DHT22;5009;50.656;7.188;2022-10-16T08:52:53;19.10;99.90
9941;DHT22;5009;50.656;7.188;2022-10-16T08:55:42;19.00;99.90
9941;DHT22;5009;50.656;7.188;2022-10-16T08:58:17;19.20;99.90
9941;DHT22;5009;50.656;7.188;2022-10-16T09:00:50;19.10;99.90
9941;DHT22;5009;50.656;7.188;2022-10-16T09:09:06;19.00;99.90
9941;DHT22;5009;50.656;7.188;2022-10-16T09:11:48;19.00;99.90
9941;DHT22;5009;50.656;7.188;2022-10-16T09:20:00;18.90;99.90
9941;DHT22;5009;50.656;7.188;2022-10-16T09:22:28;18.90;99.90
9941;DHT22;5009;50.656;7.188;2022-10-16T09:24:56;19.00;99.90
9941;DHT22;5009;50.656;7.188;2022-10-16T09:27:24;19.10;99.90
9941;DHT22;5009;50.656;7.188;2022-10-16T09:29:51;19.10;99.90
9941;DHT22;5009;50.656;7.188;2022-10-16T09:32:19;19.10;99.90
9941;DHT22;5009;50.656;7.188;2022-10-16T09:34:49;19.10;99.90
9941;DHT22;5009;50.656;7.188;2022-10-16T09:37:18;18.90;99.90
9941;DHT22;5009;50.656;7.188;2022-10-16T09:39:47;19.00;99.90
9941;DHT22;5009;50.656;7.188;2022-10-16T09:42:18;18.90;99.90
9941;DHT22;5009;50.656;7.188;2022-10-16T09:44:48;19.00;99.90
9941;DHT22;5009;50.656;7.188;2022-10-16T09:47:17;19.10;99.90
9941;DHT22;5009;50.656;7.188;2022-10-16T09:49:56;19.20;99.90
9941;DHT22;5009;50.656;7.188;2022-10-16T09:52:24;19.30;99.90
9941;DHT22;5009;50.656;7.188;2022-10-16T09:55:00;19.30;99.90
9941;DHT22;5009;50.656;7.188;2022-10-16T09:57:27;19.30;99.90
9941;DHT22;5009;50.656;7.188;2022-10-16T09:59:55;19.40;99.90
9941;DHT22;5009;50.656;7.188;2022-10-16T10:02:30;19.40;99.90
9941;DHT22;5009;50.656;7.188;2022-10-16T10:04:56;19.50;99.90
9941;DHT22;5009;50.656;7.188;2022-10-16T10:07:35;19.40;99.90
9941;DHT22;5009;50.656;7.188;2022-10-16T10:10:04;19.40;99.90
9941;DHT22;5009;50.656;7.188;2022-10-16T10:12:31;19.30;99.90
9941;DHT22;5009;50.656;7.188;2022-10-16T10:15:10;19.30;99.90
9941;DHT22;5009;50.656;7.188;2022-10-16T10:17:55;19.20;99.90
9941;DHT22;5009;50.656;7.188;2022-10-16T10:20:30;19.20;99.90
9941;DHT22;5009;50.656;7.188;2022-10-16T10:22:58;19.10;99.90
9941;DHT22;5009;50.656;7.188;2022-10-16T10:46:42;19.10;99.90
9941;DHT22;5009;50.656;7.188;2022-10-16T10:53:05;19.10;99.90
9941;DHT22;5009;50.656;7.188;2022-10-16T11:05:58;19.30;99.90
9941;DHT22;5009;50.656;7.188;2022-10-16T11:08:45;19.30;99.90
9941;DHT22;5009;50.656;7.188;2022-10-16T11:16:44;19.40;99.90
9941;DHT22;5009;50.656;7.188;2022-10-16T11:19:13;19.50;99.90
9941;DHT22;5009;50.656;7.188;2022-10-16T11:21:47;19.40;99.90
9941;DHT22;5009;50.656;7.188;2022-10-16T11:24:40;19.50;99.90
9941;DHT22;5009;50.656;7.188;2022-10-16T11:27:09;19.60;99.90
9941;DHT22;5009;50.656;7.188;2022-10-16T11:29:46;19.70;99.90
9941;DHT22;5009;50.656;7.188;2022-10-16T11:32:31;19.70;99.90
9941;DHT22;5009;50.656;7.188;2022-10-16T11:35:42;19.80;99.90
9941;DHT22;5009;50.656;7.188;2022-10-16T11:38:02;19.80;99.90
9941;DHT22;5009;50.656;7.188;2022-10-16T11:40:31;19.70;99.90
9941;DHT22;5009;50.656;7.188;2022-10-16T11:43:24;19.70;99.90
9941;DHT22;5009;50.656;7.188;2022-10-16T11:45:56;19.70;99.90
9941;DHT22;5009;50.656;7.188;2022-10-16T11:48:25;19.70;99.90
9941;DHT22;5009;50.656;7.188;2022-10-16T11:50:58;19.60;99.90
9941;DHT22;5009;50.656;7.188;2022-10-16T11:53:45;19.60;99.90
9941;DHT22;5009;50.656;7.188;2022-10-16T11:56:15;19.60;99.90
9941;DHT22;5009;50.656;7.188;2022-10-16T11:59:00;19.60;99.90
9941;DHT22;5009;50.656;7.188;2022-10-16T12:01:31;19.60;99.90
9941;DHT22;5009;50.656;7.188;2022-10-16T12:04:31;19.60;99.90
9941;DHT22;5009;50.656;7.188;2022-10-16T12:07:08;19.60;99.90
9941;DHT22;5009;50.656;7.188;2022-10-16T12:09:38;19.50;99.90
9941;DHT22;5009;50.656;7.188;2022-10-16T12:12:22;19.50;99.90
9941;DHT22;5009;50.656;7.188;2022-10-16T12:14:59;19.60;99.90
9941;DHT22;5009;50.656;7.188;2022-10-16T12:17:37;19.70;99.90
9941;DHT22;5009;50.656;7.188;2022-10-16T12:22:48;19.80;99.90
9941;DHT22;5009;50.656;7.188;2022-10-16T12:25:38;19.90;99.90
9941;DHT22;5009;50.656;7.188;2022-10-16T12:30:41;20.00;99.90
9941;DHT22;5009;50.656;7.188;2022-10-16T12:33:24;20.20;99.90
9941;DHT22;5009;50.656;7.188;2022-10-16T12:35:51;20.20;99.90
9941;DHT22;5009;50.656;7.188;2022-10-16T12:38:24;20.20;99.90
9941;DHT22;5009;50.656;7.188;2022-10-16T12:41:05;20.40;99.90
9941;DHT22;5009;50.656;7.188;2022-10-16T12:43:38;20.40;99.20
9941;DHT22;5009;50.656;7.188;2022-10-16T12:48:37;20.60;99.80
9941;DHT22;5009;50.656;7.188;2022-10-16T12:51:21;20.60;99.30
9941;DHT22;5009;50.656;7.188;2022-10-16T13:10:40;20.80;99.90
9941;DHT22;5009;50.656;7.188;2022-10-16T13:16:20;20.50;99.90
9941;DHT22;5009;50.656;7.188;2022-10-16T13:22:02;20.50;99.90
9941;DHT22;5009;50.656;7.188;2022-10-16T13:30:23;20.50;99.90
9941;DHT22;5009;50.656;7.188;2022-10-16T13:33:04;20.60;99.90
9941;DHT22;5009;50.656;7.188;2022-10-16T13:35:33;20.60;99.90
9941;DHT22;5009;50.656;7.188;2022-10-16T13:38:13;20.60;99.90
9941;DHT22;5009;50.656;7.188;2022-10-16T13:43:43;20.50;99.90
9941;DHT22;5009;50.656;7.188;2022-10-16T13:46:19;20.40;99.90
9941;DHT22;5009;50.656;7.188;2022-10-16T13:48:56;20.40;99.90
9941;DHT22;5009;50.656;7.188;2022-10-16T13:51:22;20.40;99.90
9941;DHT22;5009;50.656;7.188;2022-10-16T13:53:52;20.40;99.90
9941;DHT22;5009;50.656;7.188;2022-10-16T13:56:22;20.50;99.90
9941;DHT22;5009;50.656;7.188;2022-10-16T13:59:24;20.50;99.90
9941;DHT22;5009;50.656;7.188;2022-10-16T14:01:53;20.60;99.90
9941;DHT22;5009;50.656;7.188;2022-10-16T14:04:19;20.50;99.90
9941;DHT22;5009;50.656;7.188;2022-10-16T14:06:46;20.60;99.90
9941;DHT22;5009;50.656;7.188;2022-10-16T14:11:49;20.40;99.90
9941;DHT22;5009;50.656;7.188;2022-10-16T14:14:17;20.40;99.90
9941;DHT22;5009;50.656;7.188;2022-10-16T14:16:43;20.40;99.90
9941;DHT22;5009;50.656;7.188;2022-10-16T14:19:24;20.40;99.90
9941;DHT22;5009;50.656;7.188;2022-10-16T14:21:51;20.40;99.90
9941;DHT22;5009;50.656;7.188;2022-10-16T14:24:31;20.40;99.90
9941;DHT22;5009;50.656;7.188;2022-10-16T14:26:58;20.30;99.90
9941;DHT22;5009;50.656;7.188;2022-10-16T14:29:26;20.20;99.90
9941;DHT22;5009;50.656;7.188;2022-10-16T14:32:03;20.20;99.90
9941;DHT22;5009;50.656;7.188;2022-10-16T14:34:33;20.20;99.90
9941;DHT22;5009;50.656;7.188;2022-10-16T14:37:01;20.10;99.90
9941;DHT22;5009;50.656;7.188;2022-10-16T14:39:32;20.20;99.90
9941;DHT22;5009;50.656;7.188;2022-10-16T14:41:58;20.30;99.90
9941;DHT22;5009;50.656;7.188;2022-10-16T14:44:29;20.20;99.90
9941;DHT22;5009;50.656;7.188;2022-10-16T14:46:56;20.10;99.90
9941;DHT22;5009;50.656;7.188;2022-10-16T14:49:22;20.10;99.90
9941;DHT22;5009;50.656;7.188;2022-10-16T14:51:49;20.10;99.90
9941;DHT22;5009;50.656;7.188;2022-10-16T14:54:16;20.10;99.90
9941;DHT22;5009;50.656;7.188;2022-10-16T14:56:54;20.10;99.90
9941;DHT22;5009;50.656;7.188;2022-10-16T15:01:52;20.10;99.90
9941;DHT22;5009;50.656;7.188;2022-10-16T15:04:17;20.20;99.90
9941;DHT22;5009;50.656;7.188;2022-10-16T15:06:44;20.10;99.90
9941;DHT22;5009;50.656;7.188;2022-10-16T15:09:09;20.10;99.90
9941;DHT22;5009;50.656;7.188;2022-10-16T15:11:35;20.10;99.90
9941;DHT22;5009;50.656;7.188;2022-10-16T15:14:01;20.10;99.90
9941;DHT22;5009;50.656;7.188;2022-10-16T15:16:28;20.10;99.90
9941;DHT22;5009;50.656;7.188;2022-10-16T15:18:54;20.10;99.90
9941;DHT22;5009;50.656;7.188;2022-10-16T15:21:31;20.10;99.90
9941;DHT22;5009;50.656;7.188;2022-10-16T15:23:58;20.00;99.90
9941;DHT22;5009;50.656;7.188;2022-10-16T15:26:28;20.00;99.90
9941;DHT22;5009;50.656;7.188;2022-10-16T15:28:54;20.00;99.90
9941;DHT22;5009;50.656;7.188;2022-10-16T15:31:21;20.00;99.90
9941;DHT22;5009;50.656;7.188;2022-10-16T15:33:50;19.80;99.90
9941;DHT22;5009;50.656;7.188;2022-10-16T15:36:25;19.90;99.90
9941;DHT22;5009;50.656;7.188;2022-10-16T15:38:51;19.80;99.90
9941;DHT22;5009;50.656;7.188;2022-10-16T15:41:16;19.70;99.90
9941;DHT22;5009;50.656;7.188;2022-10-16T15:43:42;19.70;99.90
9941;DHT22;5009;50.656;7.188;2022-10-16T15:46:11;19.70;99.90
9941;DHT22;5009;50.656;7.188;2022-10-16T15:48:37;19.70;99.90
9941;DHT22;5009;50.656;7.188;2022-10-16T15:51:06;19.60;99.90
9941;DHT22;5009;50.656;7.188;2022-10-16T15:53:33;19.60;99.90
9941;DHT22;5009;50.656;7.188;2022-10-16T15:56:02;19.50;99.90
9941;DHT22;5009;50.656;7.188;2022-10-16T15:58:28;19.40;99.90
9941;DHT22;5009;50.656;7.188;2022-10-16T16:00:57;19.40;99.90
9941;DHT22;5009;50.656;7.188;2022-10-16T16:03:23;19.40;99.90
9941;DHT22;5009;50.656;7.188;2022-10-16T16:05:49;19.40;99.90
9941;DHT22;5009;50.656;7.188;2022-10-16T16:08:14;19.40;99.90
9941;DHT22;5009;50.656;7.188;2022-10-16T16:10:40;19.40;99.90
9941;DHT22;5009;50.656;7.188;2022-10-16T16:13:06;19.30;99.90
9941;DHT22;5009;50.656;7.188;2022-10-16T16:15:31;19.30;99.90
9941;DHT22;5009;50.656;7.188;2022-10-16T16:17:57;19.30;99.90
9941;DHT22;5009;50.656;7.188;2022-10-16T16:20:22;19.20;99.90
9941;DHT22;5009;50.656;7.188;2022-10-16T16:22:48;19.20;99.90
9941;DHT22;5009;50.656;7.188;2022-10-16T16:25:14;19.20;99.90
9941;DHT22;5009;50.656;7.188;2022-10-16T16:27:39;19.10;99.90
9941;DHT22;5009;50.656;7.188;2022-10-16T16:30:10;19.10;99.90
9941;DHT22;5009;50.656;7.188;2022-10-16T16:32:36;19.00;99.90
9941;DHT22;5009;50.656;7.188;2022-10-16T16:35:03;19.00;99.90
9941;DHT22;5009;50.656;7.188;2022-10-16T16:37:29;18.90;99.90
9941;DHT22;5009;50.656;7.188;2022-10-16T16:39:55;18.90;99.90
9941;DHT22;5009;50.656;7.188;2022-10-16T16:42:24;18.90;99.90
9941;DHT22;5009;50.656;7.188;2022-10-16T16:44:50;18.90;99.90
9941;DHT22;5009;50.656;7.188;2022-10-16T16:47:15;18.90;99.90
9941;DHT22;5009;50.656;7.188;2022-10-16T16:49:41;18.80;99.90
9941;DHT22;5009;50.656;7.188;2022-10-16T16:52:07;18.80;99.90
9941;DHT22;5009;50.656;7.188;2022-10-16T16:54:32;18.90;99.90
9941;DHT22;5009;50.656;7.188;2022-10-16T16:56:58;18.80;99.90
9941;DHT22;5009;50.656;7.188;2022-10-16T16:59:23;18.80;99.90
9941;DHT22;5009;50.656;7.188;2022-10-16T17:01:49;18.80;99.90
9941;DHT22;5009;50.656;7.188;2022-10-16T17:04:16;18.80;99.90
9941;DHT22;5009;50.656;7.188;2022-10-16T17:06:42;18.80;99.90
9941;DHT22;5009;50.656;7.188;2022-10-16T17:09:08;18.70;99.90
9941;DHT22;5009;50.656;7.188;2022-10-16T17:11:34;18.70;99.90
9941;DHT22;5009;50.656;7.188;2022-10-16T17:14:01;18.70;99.90
9941;DHT22;5009;50.656;7.188;2022-10-16T17:16:34;18.70;99.90
9941;DHT22;5009;50.656;7.188;2022-10-16T17:19:11;18.70;99.90
9941;DHT22;5009;50.656;7.188;2022-10-16T17:21:37;18.70;99.90
9941;DHT22;5009;50.656;7.188;2022-10-16T17:24:03;18.60;99.90
9941;DHT22;5009;50.656;7.188;2022-10-16T17:26:29;18.60;99.90
9941;DHT22;5009;50.656;7.188;2022-10-16T17:28:57;18.60;99.90
9941;DHT22;5009;50.656;7.188;2022-10-16T17:31:25;18.70;99.90
9941;DHT22;5009;50.656;7.188;2022-10-16T17:33:51;18.60;99.90
9941;DHT22;5009;50.656;7.188;2022-10-16T17:36:18;18.60;99.90
9941;DHT22;5009;50.656;7.188;2022-10-16T17:38:44;18.60;99.90
9941;DHT22;5009;50.656;7.188;2022-10-16T17:41:20;18.60;99.90
9941;DHT22;5009;50.656;7.188;2022-10-16T17:43:47;18.50;99.90
9941;DHT22;5009;50.656;7.188;2022-10-16T17:46:15;18.50;99.90
9941;DHT22;5009;50.656;7.188;2022-10-16T17:48:42;18.50;99.90
9941;DHT22;5009;50.656;7.188;2022-10-16T17:51:11;18.40;99.90
9941;DHT22;5009;50.656;7.188;2022-10-16T17:53:37;18.40;99.90
9941;DHT22;5009;50.656;7.188;2022-10-16T17:56:08;18.40;99.90
9941;DHT22;5009;50.656;7.188;2022-10-16T17:58:35;18.40;99.90
9941;DHT22;5009;50.656;7.188;2022-10-16T18:01:01;18.30;99.90
9941;DHT22;5009;50.656;7.188;2022-10-16T18:03:26;18.30;99.90
9941;DHT22;5009;50.656;7.188;2022-10-16T18:05:53;18.30;99.90
9941;DHT22;5009;50.656;7.188;2022-10-16T18:08:20;18.20;99.90